Time;durP1;ratioP1;P1;durP2;ratioP2;P2;SDS_P1;SDS_P2;PMS_P1;PMS_P2;Temp;Humidity;BMP_temperature;BMP_pressure;BME280_temperature;BME280_humidity;BME280_pressure;Samples;Min_cycle;Max_cycle;Signal;HPM_P1;HPM_P2
2022/01/31 00:01:38;;;;;;;0.10;0.00;;;4.70;39.10;;;;;;20833399;28;20041;-48
2022/01/31 00:11:45;;;;;;;0.10;0.00;;;4.70;38.20;;;;;;20829850;28;20067;-48
2022/01/31 00:21:48;;;;;;;0.90;0.05;;;4.60;37.20;;;;;;20947390;28;20057;-49
2022/01/31 00:31:50;;;;;;;0.20;0.00;;;4.60;37.90;;;;;;20938753;28;20033;-50
2022/01/31 00:41:53;;;;;;;0.22;0.10;;;3.60;40.20;;;;;;20786850;28;20474;-49
2022/01/31 00:51:55;;;;;;;1.25;0.10;;;3.70;40.00;;;;;;20759957;28;20247;-48
2022/01/31 01:01:58;;;;;;;0.10;0.00;;;3.80;38.00;;;;;;20703491;28;20537;-47
2022/01/31 01:12:01;;;;;;;0.47;0.10;;;3.40;42.60;;;;;;20723752;28;20247;-48
2022/01/31 01:22:04;;;;;;;0.30;0.00;;;2.40;45.90;;;;;;20882321;28;20045;-48
2022/01/31 01:32:09;;;;;;;0.28;0.10;;;1.80;46.00;;;;;;20955961;28;20472;-48
2022/01/31 01:42:11;;;;;;;0.20;0.00;;;1.70;47.50;;;;;;20962864;28;20090;-49
2022/01/31 01:52:17;;;;;;;0.22;0.00;;;1.20;46.40;;;;;;20986780;28;20551;-49
2022/01/31 02:02:19;;;;;;;0.10;0.00;;;1.00;50.10;;;;;;20987510;28;20377;-48
2022/01/31 02:12:24;;;;;;;0.20;0.00;;;0.70;51.10;;;;;;20953728;28;20049;-49
2022/01/31 02:22:27;;;;;;;0.17;0.00;;;0.70;49.70;;;;;;20968765;28;20097;-51
2022/01/31 02:32:35;;;;;;;0.43;0.00;;;0.60;49.50;;;;;;20968162;28;20040;-50
2022/01/31 02:42:39;;;;;;;0.17;0.00;;;0.30;52.80;;;;;;20984091;28;20393;-48
2022/01/31 02:52:47;;;;;;;0.05;0.00;;;0.10;54.00;;;;;;20983997;28;20366;-50
2022/01/31 03:02:50;;;;;;;0.10;0.00;;;0.10;51.70;;;;;;20950285;28;20441;-48
2022/01/31 03:12:53;;;;;;;0.38;0.00;;;0.20;52.40;;;;;;20945165;28;20075;-48
2022/01/31 03:22:57;;;;;;;0.10;0.00;;;0.10;52.20;;;;;;20867261;28;20464;-48
2022/01/31 03:33:00;;;;;;;0.10;0.00;;;0.10;53.30;;;;;;20899154;28;20033;-48
2022/01/31 03:43:02;;;;;;;0.22;0.00;;;0.20;52.10;;;;;;20878973;28;20067;-47
2022/01/31 03:53:05;;;;;;;0.30;0.10;;;0.30;52.00;;;;;;20898475;28;20041;-47
2022/01/31 04:03:08;;;;;;;3.78;0.10;;;0.30;53.30;;;;;;20882694;28;20025;-50
2022/01/31 04:13:10;;;;;;;0.65;0.10;;;0.30;52.10;;;;;;20896556;28;20110;-48
2022/01/31 04:23:16;;;;;;;0.93;0.30;;;0.70;51.80;;;;;;20895828;28;20119;-50
2022/01/31 04:33:19;;;;;;;0.68;0.30;;;1.10;53.10;;;;;;20895143;28;20037;-50
2022/01/31 04:43:22;;;;;;;1.50;0.45;;;1.20;52.00;;;;;;20894373;28;20033;-51
2022/01/31 04:53:25;;;;;;;2.25;0.43;;;1.50;51.50;;;;;;20893232;28;20411;-48
2022/01/31 05:03:27;;;;;;;1.92;0.52;;;1.50;51.70;;;;;;20892955;28;20044;-48
2022/01/31 05:13:30;;;;;;;1.30;0.50;;;1.70;53.70;;;;;;20883693;28;20406;-48
2022/01/31 05:23:33;;;;;;;3.90;0.50;;;1.70;51.60;;;;;;20892283;28;20041;-49
2022/01/31 05:33:35;;;;;;;1.05;0.50;;;1.60;52.40;;;;;;20907006;28;20099;-50
2022/01/31 05:43:38;;;;;;;1.85;0.60;;;1.50;50.60;;;;;;20889999;28;20438;-48
2022/01/31 05:53:40;;;;;;;1.30;0.30;;;1.40;52.90;;;;;;20888871;28;20461;-51
2022/01/31 06:03:43;;;;;;;0.95;0.50;;;1.10;53.40;;;;;;20904114;28;20040;-48
2022/01/31 06:13:47;;;;;;;0.80;0.50;;;0.90;53.20;;;;;;20901151;28;20501;-50
2022/01/31 06:23:51;;;;;;;0.75;0.20;;;1.00;55.70;;;;;;20903135;28;20481;-49
2022/01/31 06:33:54;;;;;;;1.45;0.38;;;1.10;54.40;;;;;;20903616;28;20106;-48
2022/01/31 06:43:57;;;;;;;1.10;0.30;;;1.30;55.00;;;;;;20902208;28;20056;-48
2022/01/31 06:54:00;;;;;;;1.33;0.38;;;1.10;54.00;;;;;;20901336;28;20545;-48
2022/01/31 07:04:03;;;;;;;0.55;0.20;;;0.80;53.90;;;;;;20883705;28;20462;-48
2022/01/31 07:14:13;;;;;;;0.77;0.30;;;0.60;54.50;;;;;;20900061;28;20045;-49
2022/01/31 07:24:21;;;;;;;1.30;0.38;;;0.60;54.60;;;;;;20883582;28;20094;-48
2022/01/31 07:34:25;;;;;;;0.77;0.30;;;0.40;55.80;;;;;;20898958;28;20029;-49
2022/01/31 07:44:27;;;;;;;1.23;0.28;;;0.60;56.00;;;;;;20899251;28;20496;-48
2022/01/31 07:54:30;;;;;;;4.20;0.88;;;0.90;57.70;;;;;;20808248;28;20049;-47
2022/01/31 08:04:32;;;;;;;3.95;1.30;;;1.50;53.00;;;;;;20807275;28;20071;-49
2022/01/31 08:14:36;;;;;;;4.13;1.77;;;2.00;55.00;;;;;;20806530;28;20494;-51
2022/01/31 08:24:42;;;;;;;10.32;3.50;;;2.00;58.00;;;;;;20811727;28;20096;-49
2022/01/31 08:45:07;;;;;;;13.70;5.00;;;2.10;62.90;;;;;;20909310;28;20041;-48
2022/01/31 08:55:11;;;;;;;10.70;4.57;;;2.20;61.80;;;;;;20893797;28;20037;-48
2022/01/31 09:05:14;;;;;;;11.43;5.07;;;2.30;62.00;;;;;;20909289;28;20037;-47
2022/01/31 09:15:17;;;;;;;18.90;7.22;;;2.80;62.80;;;;;;20902063;28;20056;-53
2022/01/31 09:25:19;;;;;;;29.15;11.25;;;3.20;66.20;;;;;;20908249;28;20068;-50
2022/01/31 09:35:25;;;;;;;26.17;10.68;;;3.00;75.20;;;;;;20906746;28;20092;-48
2022/01/31 09:45:48;;;;;;;25.67;10.38;;;3.60;75.20;;;;;;20907220;28;20037;-51
2022/01/31 09:55:52;;;;;;;27.02;11.38;;;4.10;74.90;;;;;;20888592;28;20033;-49
2022/01/31 10:05:55;;;;;;;25.98;11.20;;;3.60;78.00;;;;;;20904605;28;20103;-50
2022/01/31 10:26:32;;;;;;;31.48;15.15;;;4.80;78.80;;;;;;20903663;28;20578;-51
2022/01/31 10:36:36;;;;;;;32.00;13.55;;;5.00;81.10;;;;;;20902436;28;20091;-49
2022/01/31 10:57:00;;;;;;;29.38;13.57;;;5.90;80.30;;;;;;20901227;28;20037;-49
2022/01/31 11:07:10;;;;;;;32.67;16.55;;;6.30;77.80;;;;;;20900479;28;20029;-50
2022/01/31 11:17:16;;;;;;;36.47;17.37;;;6.40;81.90;;;;;;20883592;28;20037;-50
2022/01/31 11:27:26;;;;;;;34.85;16.92;;;6.90;82.60;;;;;;20899991;28;20041;-49
2022/01/31 11:37:29;;;;;;;35.60;17.60;;;6.80;82.90;;;;;;20881786;28;20315;-49
2022/01/31 11:47:34;;;;;;;33.95;17.67;;;7.10;82.50;;;;;;20881858;28;20397;-51
2022/01/31 11:57:37;;;;;;;33.75;17.58;;;7.20;84.10;;;;;;20892704;28;20037;-49
2022/01/31 12:07:45;;;;;;;31.60;16.77;;;7.30;84.60;;;;;;20897403;28;20033;-50
2022/01/31 12:18:22;;;;;;;35.00;18.40;;;7.00;85.30;;;;;;20895820;28;20566;-49
2022/01/31 12:28:38;;;;;;;43.50;24.90;;;6.30;89.10;;;;;;20912018;28;20567;-47
2022/01/31 12:38:41;;;;;;;42.35;20.10;;;6.70;88.00;;;;;;20911303;28;20045;-48
2022/01/31 12:49:09;;;;;;;40.72;20.23;;;5.70;91.10;;;;;;20910691;28;20045;-48
2022/01/31 12:59:15;;;;;;;38.40;19.48;;;6.30;90.80;;;;;;20893142;28;20033;-47
2022/01/31 13:09:24;;;;;;;36.92;19.00;;;6.50;89.80;;;;;;20908499;28;20036;-48
2022/01/31 13:19:32;;;;;;;34.97;16.20;;;5.80;90.40;;;;;;20908174;28;20045;-49
2022/01/31 13:29:51;;;;;;;37.92;19.88;;;5.90;90.40;;;;;;20907348;28;20102;-48
2022/01/31 13:39:56;;;;;;;39.67;18.77;;;6.20;90.70;;;;;;20905986;28;20476;-49
2022/01/31 13:50:01;;;;;;;37.13;17.08;;;5.80;92.00;;;;;;20906496;28;20037;-48
2022/01/31 14:00:05;;;;;;;36.30;17.40;;;5.30;91.40;;;;;;20888330;28;20048;-49
2022/01/31 14:10:24;;;;;;;37.75;18.42;;;4.70;92.30;;;;;;20906307;28;20094;-51
2022/01/31 14:20:26;;;;;;;38.10;18.00;;;4.50;93.00;;;;;;20969084;28;20067;-50
2022/01/31 14:30:29;;;;;;;33.20;15.30;;;4.30;93.30;;;;;;20985038;28;20036;-48
2022/01/31 14:50:55;;;;;;;32.33;17.30;;;4.60;92.90;;;;;;20984025;28;20040;-48
2022/01/31 15:01:01;;;;;;;30.42;14.65;;;5.10;92.30;;;;;;20983105;28;20032;-49
2022/01/31 15:11:09;;;;;;;8.85;4.38;;;5.10;88.90;;;;;;20966058;28;20082;-48
2022/01/31 15:21:13;;;;;;;1.85;0.98;;;5.60;72.60;;;;;;20899433;28;20442;-48
2022/01/31 15:31:18;;;;;;;7.95;3.72;;;6.00;60.20;;;;;;20900777;28;20095;-47
2022/01/31 15:41:21;;;;;;;10.75;4.95;;;5.70;61.60;;;;;;20831159;28;20041;-50
2022/01/31 15:51:24;;;;;;;11.15;5.78;;;4.70;67.10;;;;;;20816131;28;20536;-62
2022/01/31 16:01:28;;;;;;;7.63;3.80;;;3.80;70.20;;;;;;20853983;28;20033;-62
2022/01/31 16:11:32;;;;;;;5.75;2.45;;;3.30;63.50;;;;;;20847690;28;20037;-62
2022/01/31 16:21:37;;;;;;;2.65;1.20;;;3.20;60.80;;;;;;20863724;28;20122;-62
2022/01/31 16:31:41;;;;;;;0.65;0.17;;;2.80;57.30;;;;;;20911995;28;20063;-59
2022/01/31 16:41:44;;;;;;;1.60;0.50;;;3.40;49.70;;;;;;20911466;28;20091;-62
2022/01/31 16:51:48;;;;;;;1.23;0.43;;;3.80;48.80;;;;;;20906982;28;20477;-62
2022/01/31 17:01:53;;;;;;;2.28;1.17;;;3.80;51.50;;;;;;20892480;28;20037;-61
2022/01/31 17:11:56;;;;;;;2.63;1.05;;;3.30;58.90;;;;;;20000382;28;10000980;-61
2022/01/31 17:21:58;;;;;;;2.55;1.05;;;2.70;62.50;;;;;;20906582;28;20049;-62
2022/01/31 17:32:01;;;;;;;0.98;0.30;;;2.20;64.10;;;;;;20889598;28;20037;-66
2022/01/31 17:42:06;;;;;;;1.63;0.52;;;1.90;63.80;;;;;;20902116;28;20106;-66
2022/01/31 17:52:10;;;;;;;0.73;0.17;;;1.80;64.20;;;;;;20932988;28;20024;-59
2022/01/31 18:02:12;;;;;;;1.10;0.03;;;1.80;61.00;;;;;;20924147;28;20029;-60
2022/01/31 18:12:16;;;;;;;0.13;0.00;;;1.80;59.60;;;;;;20933649;28;20041;-56
2022/01/31 18:22:18;;;;;;;0.60;0.10;;;1.80;58.10;;;;;;20894087;28;20053;-64
2022/01/31 18:32:20;;;;;;;0.00;0.00;;;1.70;57.10;;;;;;20899347;28;20032;-57
2022/01/31 18:42:23;;;;;;;0.05;0.00;;;1.60;55.50;;;;;;20897891;28;20895;-50
2022/01/31 18:52:28;;;;;;;0.05;0.00;;;1.80;54.60;;;;;;20876712;28;20040;-52
2022/01/31 19:02:31;;;;;;;0.60;0.00;;;1.80;53.50;;;;;;20897023;28;20041;-55
2022/01/31 19:12:48;;;;;;;0.75;0.00;;;1.60;53.00;;;;;;20881122;28;20032;-59
2022/01/31 19:22:51;;;;;;;0.03;0.00;;;1.40;51.70;;;;;;20877309;28;20033;-59
2022/01/31 19:32:53;;;;;;;0.00;0.00;;;1.50;51.40;;;;;;20893998;28;20090;-58
2022/01/31 19:53:39;;;;;;;0.20;0.00;;;0.60;53.30;;;;;;20724169;28;20244;-59
2022/01/31 20:03:44;;;;;;;0.00;0.00;;;-0.50;57.40;;;;;;20704451;28;20108;-56
2022/01/31 20:13:49;;;;;;;0.00;0.00;;;-0.60;54.80;;;;;;20702156;28;20081;-51
2022/01/31 20:23:53;;;;;;;0.10;0.00;;;0.00;52.90;;;;;;20786202;28;20429;-57
2022/01/31 20:33:55;;;;;;;0.00;0.00;;;0.40;51.80;;;;;;20807547;28;20034;-50
2022/01/31 20:43:58;;;;;;;0.00;0.00;;;0.90;50.20;;;;;;20828631;28;20489;-53
2022/01/31 20:54:02;;;;;;;0.10;0.00;;;1.00;50.70;;;;;;20810251;28;20041;-56
2022/01/31 21:04:06;;;;;;;0.00;0.00;;;0.70;52.70;;;;;;20822638;28;20038;-59
2022/01/31 21:14:08;;;;;;;0.00;0.00;;;0.90;51.40;;;;;;20826637;28;20455;-56
2022/01/31 21:24:12;;;;;;;0.68;0.30;;;1.20;52.30;;;;;;20886729;28;20063;-61
2022/01/31 21:34:14;;;;;;;0.10;0.00;;;1.20;56.00;;;;;;20920092;28;20106;-55
2022/01/31 21:44:17;;;;;;;0.00;0.00;;;1.20;51.70;;;;;;20841490;23;20505;-46
2022/01/31 21:54:25;;;;;;;0.00;0.00;;;1.40;51.40;;;;;;20749958;28;20065;-51
2022/01/31 22:04:29;;;;;;;0.00;0.00;;;1.40;50.90;;;;;;20734420;28;20123;-53
2022/01/31 22:14:31;;;;;;;0.00;0.00;;;1.40;52.30;;;;;;20747700;28;20118;-51
2022/01/31 22:24:34;;;;;;;0.00;0.00;;;1.40;52.20;;;;;;20752795;28;20080;-55
2022/01/31 22:34:37;;;;;;;0.00;0.00;;;1.30;52.30;;;;;;20736944;28;20033;-49
2022/01/31 22:44:39;;;;;;;0.00;0.00;;;1.60;51.80;;;;;;20780654;28;20103;-59
2022/01/31 22:54:42;;;;;;;0.00;0.00;;;1.80;51.30;;;;;;20808595;28;20061;-49
2022/01/31 23:04:46;;;;;;;6.07;0.05;;;1.90;50.60;;;;;;20773185;28;20087;-50
2022/01/31 23:14:52;;;;;;;0.00;0.00;;;1.90;50.40;;;;;;20791011;28;20072;-50
2022/01/31 23:56:08;;;;;;;1.70;0.08;;;2.40;49.30;;;;;;20819800;28;20282;-46
